createdAt,value
2022-11-17T00:00:42.683Z,98397.41
2022-11-17T00:03:14.789Z,98411.28
2022-11-17T00:05:42.969Z,98405.09
2022-11-17T00:08:11.056Z,98398.47
2022-11-17T00:10:39.017Z,98394.19
2022-11-17T00:13:24.692Z,98406.16
2022-11-17T00:15:52.715Z,98415.38
2022-11-17T00:18:39.503Z,98414.19
2022-11-17T00:21:21.353Z,98394.47
2022-11-17T00:23:50.363Z,98386.34
2022-11-17T00:26:20.991Z,98396.44
2022-11-17T00:28:49.397Z,98409.25
2022-11-17T00:31:34.852Z,98399.25
2022-11-17T00:34:07.314Z,98393.38
2022-11-17T00:36:38.704Z,98412.31
2022-11-17T00:39:07.271Z,98403.16
2022-11-17T00:41:35.314Z,98417.47
2022-11-17T00:44:03.660Z,98411.63
2022-11-17T00:46:31.794Z,98411.97
2022-11-17T00:49:00.040Z,98414.66
2022-11-17T00:51:29.550Z,98414.66
2022-11-17T00:53:57.905Z,98410.81
2022-11-17T00:56:26.719Z,98410.81
2022-11-17T00:58:54.885Z,98405.81
2022-11-17T01:01:23.428Z,98405.81
2022-11-17T01:03:51.484Z,98412.03
2022-11-17T01:06:22.580Z,98397.34
2022-11-17T01:08:51.988Z,98395.38
2022-11-17T01:11:21.151Z,98393.09
2022-11-17T01:13:49.648Z,98390.38
2022-11-17T01:16:19.395Z,98391.16
2022-11-17T01:18:49.027Z,98385.75
2022-11-17T01:21:19.890Z,98387.38
2022-11-17T01:23:50.112Z,98378.88
2022-11-17T01:26:21.567Z,98378.03
2022-11-17T01:28:50.442Z,98371.38
2022-11-17T01:31:20.532Z,98355.88
2022-11-17T01:33:49.459Z,98376.81
2022-11-17T01:36:20.943Z,98364.88
2022-11-17T01:38:49.133Z,98357.13
2022-11-17T01:41:19.959Z,98367.88
2022-11-17T01:43:50.219Z,98362.88
2022-11-17T01:46:30.275Z,98363.22
2022-11-17T01:49:04.253Z,98366.25
2022-11-17T01:51:34.455Z,98360.09
2022-11-17T01:54:03.707Z,98367.97
2022-11-17T01:56:40.211Z,98367.88
2022-11-17T01:59:13.933Z,98367.88
2022-11-17T02:01:55.854Z,98358.44
2022-11-17T02:04:27.244Z,98352.56
2022-11-17T02:07:02.660Z,98344.34
2022-11-17T02:09:31.067Z,98348.91
2022-11-17T02:12:00.704Z,98343.50
2022-11-17T02:14:29.542Z,98357.34
2022-11-17T02:17:01.355Z,98356.59
2022-11-17T02:19:38.221Z,98350.06
2022-11-17T02:22:34.820Z,98343.88
2022-11-17T02:25:30.013Z,98345.41
2022-11-17T02:28:13.412Z,98334.94
2022-11-17T02:30:50.739Z,98326.38
2022-11-17T02:33:26.573Z,98327.91
2022-11-17T02:36:03.088Z,98327.03
2022-11-17T02:38:36.584Z,98330.09
2022-11-17T02:41:11.409Z,98328.84
2022-11-17T02:44:03.623Z,98335.06
2022-11-17T02:46:42.153Z,98327.78
2022-11-17T02:49:17.135Z,98330.84
2022-11-17T02:51:46.803Z,98319.19
2022-11-17T02:54:15.735Z,98320.66
2022-11-17T02:56:44.271Z,98313.44
2022-11-17T02:59:16.732Z,98315.72
2022-11-17T03:02:16.707Z,98316.81
2022-11-17T03:04:54.104Z,98315.63
2022-11-17T03:07:38.289Z,98298.94
2022-11-17T03:10:15.733Z,98293.88
2022-11-17T03:12:51.193Z,98305.06
2022-11-17T03:15:29.337Z,98294.28
2022-11-17T03:18:07.770Z,98297.38
2022-11-17T03:20:43.416Z,98300.47
2022-11-17T03:23:18.000Z,98314.38
2022-11-17T03:25:51.514Z,98308.13
2022-11-17T03:28:23.075Z,98295.44
2022-11-17T03:30:55.144Z,98311.97
2022-11-17T03:33:25.246Z,98310.44
2022-11-17T03:36:03.914Z,98316.31
2022-11-17T03:38:36.399Z,98318.66
2022-11-17T03:41:06.592Z,98317.94
2022-11-17T03:43:34.840Z,98310.59
2022-11-17T03:46:09.714Z,98302.06
2022-11-17T03:48:42.938Z,98310.91
2022-11-17T03:51:15.446Z,98312.31
2022-11-17T03:53:44.241Z,98307.19
2022-11-17T03:56:24.179Z,98311.81
2022-11-17T03:58:56.993Z,98316.53
2022-11-17T04:01:29.032Z,98306.47
2022-11-17T04:03:57.554Z,98309.19
2022-11-17T04:06:25.597Z,98312.63
2022-11-17T04:08:53.665Z,98314.88
2022-11-17T04:11:39.252Z,98306.84
2022-11-17T04:14:24.564Z,98294.81
2022-11-17T04:16:53.982Z,98288.94
2022-11-17T04:19:22.028Z,98293.19
2022-11-17T04:21:50.276Z,98297.09
2022-11-17T04:24:18.380Z,98293.66
2022-11-17T04:27:03.987Z,98280.88
2022-11-17T04:29:34.173Z,98291.78
2022-11-17T04:32:04.611Z,98286.81
2022-11-17T04:34:32.618Z,98281.78
2022-11-17T04:37:05.326Z,98287.94
2022-11-17T04:39:38.806Z,98271.00
2022-11-17T04:42:05.879Z,98253.28
2022-11-17T04:44:33.993Z,98260.56
2022-11-17T04:47:03.680Z,98262.50
2022-11-17T04:49:33.940Z,98256.44
2022-11-17T04:52:02.108Z,98244.47
2022-11-17T04:54:31.299Z,98246.69
2022-11-17T04:56:59.328Z,98229.38
2022-11-17T04:59:27.451Z,98229.81
2022-11-17T05:01:55.487Z,98221.97
2022-11-17T05:04:40.823Z,98222.72
2022-11-17T05:07:10.795Z,98224.25
2022-11-17T05:09:38.836Z,98237.03
2022-11-17T05:12:24.771Z,98238.13
2022-11-17T05:14:52.898Z,98239.25
2022-11-17T05:17:21.112Z,98237.75
2022-11-17T05:19:49.995Z,98230.06
2022-11-17T05:22:40.263Z,98242.06
2022-11-17T05:25:09.406Z,98238.13
2022-11-17T05:27:37.708Z,98238.56
2022-11-17T05:30:08.621Z,98241.25
2022-11-17T05:32:36.708Z,98250.16
2022-11-17T05:35:05.028Z,98255.69
2022-11-17T05:37:34.461Z,98260.69
2022-11-17T05:40:02.457Z,98268.00
2022-11-17T05:42:30.581Z,98276.16
2022-11-17T05:44:58.723Z,98260.38
2022-11-17T05:47:26.748Z,98258.03
2022-11-17T05:49:54.787Z,98267.25
2022-11-17T05:52:22.831Z,98270.41
2022-11-17T05:54:52.347Z,98261.13
2022-11-17T05:57:27.154Z,98260.38
2022-11-17T06:00:00.124Z,98270.25
2022-11-17T06:02:34.246Z,98272.16
2022-11-17T06:05:03.671Z,98269.53
2022-11-17T06:07:31.944Z,98270.25
2022-11-17T06:10:01.500Z,98274.53
2022-11-17T06:12:29.492Z,98272.31
2022-11-17T06:14:57.707Z,98271.25
2022-11-17T06:17:32.042Z,98268.53
2022-11-17T06:20:04.148Z,98273.88
2022-11-17T06:22:32.918Z,98282.44
2022-11-17T06:25:04.851Z,98276.72
2022-11-17T06:27:33.899Z,98279.47
2022-11-17T06:30:04.737Z,98273.25
2022-11-17T06:32:34.128Z,98270.03
2022-11-17T06:35:04.580Z,98282.81
2022-11-17T06:37:32.799Z,98277.91
2022-11-17T06:40:02.681Z,98286.13
2022-11-17T06:42:48.459Z,98277.41
2022-11-17T06:45:16.721Z,98272.75
2022-11-17T06:47:44.762Z,98280.44
2022-11-17T06:50:13.246Z,98263.84
2022-11-17T06:52:41.390Z,98259.94
2022-11-17T06:55:11.261Z,98251.88
2022-11-17T06:57:39.298Z,98239.84
2022-11-17T07:00:08.659Z,98224.81
2022-11-17T07:02:37.834Z,98212.47
2022-11-17T07:05:06.557Z,98207.06
2022-11-17T07:07:34.644Z,98206.72
2022-11-17T07:10:03.070Z,98213.28
2022-11-17T07:12:32.605Z,98207.16
2022-11-17T07:15:00.700Z,98206.78
2022-11-17T07:17:29.716Z,98212.59
2022-11-17T07:19:57.903Z,98225.69
2022-11-17T07:22:26.137Z,98226.47
2022-11-17T07:24:54.152Z,98220.28
2022-11-17T07:27:22.227Z,98225.69
2022-11-17T07:29:51.747Z,98221.03
2022-11-17T07:32:19.940Z,98223.00
2022-11-17T07:34:48.027Z,98221.53
2022-11-17T07:37:16.091Z,98237.03
2022-11-17T07:39:44.245Z,98241.38
2022-11-17T07:42:15.077Z,98244.91
2022-11-17T07:44:43.215Z,98249.91
2022-11-17T07:47:13.224Z,98248.38
2022-11-17T07:49:41.325Z,98246.44
2022-11-17T07:52:09.649Z,98254.19
2022-11-17T07:54:38.064Z,98248.06
2022-11-17T07:57:06.193Z,98255.41
2022-11-17T07:59:34.439Z,98257.00
2022-11-17T08:02:02.524Z,98248.78
2022-11-17T08:04:32.102Z,98252.34
2022-11-17T08:07:00.337Z,98251.06
2022-11-17T08:09:28.534Z,98251.84
2022-11-17T08:11:57.765Z,98256.50
2022-11-17T08:14:25.860Z,98246.09
2022-11-17T08:16:53.952Z,98261.22
2022-11-17T08:19:22.049Z,98264.28
2022-11-17T08:21:51.728Z,98267.41
2022-11-17T08:24:19.861Z,98276.25
2022-11-17T08:26:47.951Z,98281.25
2022-11-17T08:29:16.034Z,98285.13
2022-11-17T08:31:46.265Z,98287.47
2022-11-17T08:34:14.798Z,98296.34
2022-11-17T08:36:42.868Z,98301.81
2022-11-17T08:39:12.568Z,98297.13
2022-11-17T08:41:40.653Z,98304.84
2022-11-17T08:44:08.811Z,98320.34
2022-11-17T08:46:36.963Z,98342.44
2022-11-17T08:49:05.019Z,98366.44
2022-11-17T08:51:33.371Z,98384.91
2022-11-17T08:54:01.520Z,98390.69
2022-11-17T08:56:31.109Z,98401.09
2022-11-17T08:58:59.655Z,98420.34
2022-11-17T09:01:27.730Z,98436.94
2022-11-17T09:03:56.362Z,98437.38
2022-11-17T09:06:24.553Z,98433.56
2022-11-17T09:08:54.918Z,98439.81
2022-11-17T09:11:23.590Z,98444.53
2022-11-17T09:13:53.248Z,98437.88
2022-11-17T09:16:24.067Z,98427.47
2022-11-17T09:18:56.879Z,98426.03
2022-11-17T09:21:26.214Z,98415.22
2022-11-17T09:23:54.637Z,98420.59
2022-11-17T09:26:23.140Z,98415.31
2022-11-17T09:28:53.284Z,98404.13
2022-11-17T09:31:23.232Z,98395.50
2022-11-17T09:33:51.442Z,98383.97
2022-11-17T09:36:19.958Z,98361.56
2022-11-17T09:38:48.189Z,98341.91
2022-11-17T09:41:28.706Z,98328.47
2022-11-17T09:44:07.930Z,98315.34
2022-11-17T09:46:51.193Z,98297.97
2022-11-17T09:49:31.931Z,98279.09
2022-11-17T09:52:04.761Z,98252.81
2022-11-17T09:54:43.298Z,98255.53
2022-11-17T09:57:23.012Z,98266.00
2022-11-17T10:00:03.451Z,98247.44
2022-11-17T10:02:31.730Z,98248.97
2022-11-17T10:05:00.482Z,98251.31
2022-11-17T10:07:33.327Z,98246.34
2022-11-17T10:10:04.668Z,98242.47
2022-11-17T10:12:45.986Z,98231.63
2022-11-17T10:15:24.702Z,98229.31
2022-11-17T10:17:52.972Z,98232.81
2022-11-17T10:20:21.633Z,98233.56
2022-11-17T10:22:49.879Z,98222.34
2022-11-17T10:25:37.993Z,98234.72
2022-11-17T10:28:09.428Z,98228.50
2022-11-17T10:30:38.859Z,98223.09
2022-11-17T10:33:07.084Z,98217.66
2022-11-17T10:35:36.533Z,98207.97
2022-11-17T10:38:06.993Z,98204.44
2022-11-17T10:40:48.672Z,98203.28
2022-11-17T10:43:27.483Z,98205.25
2022-11-17T10:45:59.271Z,98209.47
2022-11-17T10:48:32.440Z,98216.34
2022-11-17T10:51:02.138Z,98210.56
2022-11-17T10:53:45.072Z,98207.84
2022-11-17T10:56:19.099Z,98205.88
2022-11-17T10:59:03.363Z,98202.06
2022-11-17T11:01:35.559Z,98202.84
2022-11-17T11:04:04.376Z,98207.47
2022-11-17T11:06:33.773Z,98213.66
2022-11-17T11:09:04.873Z,98215.97
2022-11-17T11:11:45.240Z,98231.09
2022-11-17T11:14:22.436Z,98229.91
2022-11-17T11:16:52.287Z,98230.59
2022-11-17T11:19:21.741Z,98228.47
2022-11-17T11:22:23.434Z,98222.56
2022-11-17T11:24:57.360Z,98234.09
2022-11-17T11:27:44.787Z,98236.78
2022-11-17T11:30:14.953Z,98231.28
2022-11-17T11:32:59.357Z,98223.97
2022-11-17T11:35:52.944Z,98222.91
2022-11-17T11:38:36.378Z,98218.56
2022-11-17T11:41:35.749Z,98225.13
2022-11-17T11:44:31.010Z,98228.19
2022-11-17T11:47:10.089Z,98219.97
2022-11-17T11:49:43.639Z,98212.88
2022-11-17T11:52:17.583Z,98219.78
2022-11-17T11:54:51.891Z,98229.50
2022-11-17T11:57:26.118Z,98243.06
2022-11-17T12:00:03.754Z,98235.66
2022-11-17T12:02:43.506Z,98240.22
2022-11-17T12:05:22.992Z,98228.88
2022-11-17T12:07:55.759Z,98234.31
2022-11-17T12:10:32.919Z,98222.50
2022-11-17T12:13:01.687Z,98231.34
2022-11-17T12:15:37.491Z,98229.69
2022-11-17T12:18:13.325Z,98227.66
2022-11-17T12:20:58.186Z,98230.22
2022-11-17T12:23:39.435Z,98233.00
2022-11-17T12:26:07.660Z,98229.91
2022-11-17T12:28:38.172Z,98232.19
2022-11-17T12:31:10.435Z,98229.91
2022-11-17T12:34:11.651Z,98229.59
2022-11-17T12:36:41.474Z,98227.63
2022-11-17T12:39:48.156Z,98235.78
2022-11-17T12:42:16.288Z,98234.22
2022-11-17T12:45:00.617Z,98232.63
2022-11-17T12:47:30.838Z,98230.34
2022-11-17T12:50:37.624Z,98240.91
2022-11-17T12:53:26.775Z,98234.75
2022-11-17T12:56:25.913Z,98236.75
2022-11-17T12:59:04.806Z,98234.41
2022-11-17T13:01:42.540Z,98237.13
2022-11-17T13:04:14.871Z,98233.22
2022-11-17T13:07:02.265Z,98235.09
2022-11-17T13:09:34.652Z,98235.94
2022-11-17T13:12:05.547Z,98239.47
2022-11-17T13:14:34.979Z,98241.44
2022-11-17T13:17:03.893Z,98248.00
2022-11-17T13:19:35.895Z,98254.28
2022-11-17T13:22:06.730Z,98253.19
2022-11-17T13:24:38.374Z,98264.16
2022-11-17T13:27:17.729Z,98255.28
2022-11-17T13:29:45.916Z,98256.06
2022-11-17T13:32:16.980Z,98253.03
2022-11-17T13:34:51.051Z,98254.94
2022-11-17T13:37:22.182Z,98250.66
2022-11-17T13:40:02.955Z,98259.97
2022-11-17T13:42:33.310Z,98272.00
2022-11-17T13:45:05.640Z,98268.47
2022-11-17T13:47:46.373Z,98273.97
2022-11-17T13:50:39.619Z,98278.28
2022-11-17T13:53:26.431Z,98280.66
2022-11-17T13:55:56.092Z,98279.91
2022-11-17T13:58:40.948Z,98285.34
2022-11-17T14:01:13.715Z,98285.75
2022-11-17T14:03:44.557Z,98278.75
2022-11-17T14:06:14.508Z,98276.84
2022-11-17T14:08:44.908Z,98273.72
2022-11-17T14:11:22.740Z,98281.09
2022-11-17T14:13:52.808Z,98282.31
2022-11-17T14:16:27.868Z,98285.03
2022-11-17T14:18:59.292Z,98278.06
2022-11-17T14:21:27.817Z,98280.41
2022-11-17T14:24:13.786Z,98281.56
2022-11-17T14:26:45.518Z,98287.78
2022-11-17T14:29:14.870Z,98270.31
2022-11-17T14:31:43.264Z,98263.72
2022-11-17T14:34:12.322Z,98262.88
2022-11-17T14:36:41.730Z,98271.00
2022-11-17T14:39:17.705Z,98269.50
2022-11-17T14:41:48.960Z,98280.81
2022-11-17T14:44:18.308Z,98285.91
2022-11-17T14:46:46.388Z,98293.31
2022-11-17T14:49:14.718Z,98289.06
2022-11-17T14:51:42.973Z,98289.09
2022-11-17T14:54:11.310Z,98289.88
2022-11-17T14:56:39.353Z,98291.03
2022-11-17T14:59:11.994Z,98288.34
2022-11-17T15:01:40.184Z,98285.28
2022-11-17T15:04:34.641Z,98287.25
2022-11-17T15:06:57.244Z,98290.34
2022-11-17T15:09:25.313Z,98305.50
2022-11-17T15:11:53.435Z,98309.78
2022-11-17T15:14:23.007Z,98306.72
2022-11-17T15:16:51.059Z,98301.69
2022-11-17T15:19:19.250Z,98304.75
2022-11-17T15:21:47.339Z,98295.81
2022-11-17T15:24:15.712Z,98286.44
2022-11-17T15:26:44.567Z,98286.47
2022-11-17T15:29:16.154Z,98296.63
2022-11-17T15:31:46.302Z,98293.94
2022-11-17T15:34:20.107Z,98291.63
2022-11-17T15:36:48.862Z,98292.41
2022-11-17T15:39:17.407Z,98291.25
2022-11-17T15:41:46.046Z,98289.69
2022-11-17T15:44:14.599Z,98290.09
2022-11-17T15:46:47.143Z,98295.91
2022-11-17T15:49:17.690Z,98290.09
2022-11-17T15:51:46.238Z,98294.41
2022-11-17T15:54:20.063Z,98295.53
2022-11-17T15:56:49.233Z,98290.53
2022-11-17T15:59:17.693Z,98300.59
2022-11-17T16:01:46.285Z,98294.78
2022-11-17T16:04:16.712Z,98290.91
2022-11-17T16:06:47.357Z,98299.81
2022-11-17T16:09:17.184Z,98304.09
2022-11-17T16:11:45.899Z,98315.34
2022-11-17T16:14:15.094Z,98314.56
2022-11-17T16:16:43.874Z,98316.50
2022-11-17T16:19:11.984Z,98322.34
2022-11-17T16:21:41.439Z,98323.84
2022-11-17T16:24:11.932Z,98324.66
2022-11-17T16:26:40.107Z,98320.78
2022-11-17T16:29:09.879Z,98334.38
2022-11-17T16:31:39.084Z,98333.19
2022-11-17T16:34:09.285Z,98334.41
2022-11-17T16:36:40.520Z,98348.38
2022-11-17T16:39:12.589Z,98346.44
2022-11-17T16:41:42.315Z,98361.16
2022-11-17T16:44:12.419Z,98357.31
2022-11-17T16:46:43.392Z,98348.00
2022-11-17T16:49:14.480Z,98363.13
2022-11-17T16:51:50.779Z,98356.53
2022-11-17T16:54:21.221Z,98357.66
2022-11-17T16:56:49.869Z,98361.56
2022-11-17T16:59:18.667Z,98367.38
2022-11-17T17:01:47.707Z,98377.09
2022-11-17T17:04:16.149Z,98380.94
2022-11-17T17:06:46.099Z,98374.78
2022-11-17T17:09:15.910Z,98383.69
2022-11-17T17:11:46.024Z,98377.47
2022-11-17T17:14:15.828Z,98383.63
2022-11-17T17:16:44.460Z,98391.00
2022-11-17T17:19:14.806Z,98392.19
2022-11-17T17:21:45.716Z,98400.28
2022-11-17T17:24:14.357Z,98401.47
2022-11-17T17:26:43.143Z,98411.53
2022-11-17T17:29:15.816Z,98401.84
2022-11-17T17:31:44.386Z,98406.91
2022-11-17T17:34:14.649Z,98415.41
2022-11-17T17:36:43.282Z,98416.94
2022-11-17T17:39:16.051Z,98410.31
2022-11-17T17:41:46.257Z,98415.38
2022-11-17T17:44:18.132Z,98419.59
2022-11-17T17:46:47.361Z,98425.41
2022-11-17T17:49:15.983Z,98413.38
2022-11-17T17:51:45.301Z,98413.75
2022-11-17T17:54:17.217Z,98407.91
2022-11-17T17:56:45.451Z,98416.81
2022-11-17T17:59:14.657Z,98431.56
2022-11-17T18:01:46.274Z,98426.16
2022-11-17T18:04:16.505Z,98419.16
2022-11-17T18:06:48.475Z,98421.06
2022-11-17T18:09:20.302Z,98421.81
2022-11-17T18:11:50.536Z,98427.59
2022-11-17T18:14:24.146Z,98424.88
2022-11-17T18:16:54.807Z,98432.28
2022-11-17T18:19:28.281Z,98419.09
2022-11-17T18:21:59.635Z,98416.00
2022-11-17T18:24:28.323Z,98413.28
2022-11-17T18:26:56.706Z,98418.28
2022-11-17T18:29:25.490Z,98414.81
2022-11-17T18:31:55.133Z,98416.72
2022-11-17T18:34:25.678Z,98416.28
2022-11-17T18:36:56.497Z,98410.44
2022-11-17T18:39:25.069Z,98410.44
2022-11-17T18:41:53.194Z,98408.09
2022-11-17T18:44:21.448Z,98417.38
2022-11-17T18:46:50.095Z,98414.63
2022-11-17T18:49:20.020Z,98418.84
2022-11-17T18:51:48.894Z,98425.03
2022-11-17T18:54:17.222Z,98429.28
2022-11-17T18:56:45.423Z,98426.94
2022-11-17T18:59:14.569Z,98424.56
2022-11-17T19:01:44.183Z,98434.97
2022-11-17T19:04:14.998Z,98431.47
2022-11-17T19:06:44.693Z,98435.75
2022-11-17T19:09:14.213Z,98436.91
2022-11-17T19:11:42.564Z,98430.66
2022-11-17T19:14:10.948Z,98429.13
2022-11-17T19:16:44.583Z,98438.78
2022-11-17T19:19:14.576Z,98419.66
2022-11-17T19:21:44.609Z,98429.19
2022-11-17T19:24:14.069Z,98428.72
2022-11-17T19:26:42.922Z,98422.53
2022-11-17T19:29:17.059Z,98440.38
2022-11-17T19:31:45.831Z,98439.56
2022-11-17T19:34:13.943Z,98444.56
2022-11-17T19:36:43.021Z,98441.84
2022-11-17T19:39:14.899Z,98449.63
2022-11-17T19:41:43.783Z,98452.78
2022-11-17T19:44:12.447Z,98453.06
2022-11-17T19:46:40.669Z,98456.09
2022-11-17T19:49:08.896Z,98455.03
2022-11-17T19:51:38.216Z,98449.69
2022-11-17T19:54:08.829Z,98456.22
2022-11-17T19:56:38.536Z,98450.38
2022-11-17T19:59:09.759Z,98463.78
2022-11-17T20:01:39.239Z,98463.69
2022-11-17T20:04:07.764Z,98452.75
2022-11-17T20:06:38.321Z,98448.75
2022-11-17T20:09:11.478Z,98457.28
2022-11-17T20:11:42.246Z,98460.75
2022-11-17T20:14:10.887Z,98474.28
2022-11-17T20:16:39.698Z,98475.06
2022-11-17T20:19:08.366Z,98480.78
2022-11-17T20:21:36.712Z,98480.72
2022-11-17T20:24:05.752Z,98466.81
2022-11-17T20:26:35.603Z,98473.75
2022-11-17T20:29:05.059Z,98471.41
2022-11-17T20:31:34.928Z,98472.13
2022-11-17T20:34:05.976Z,98471.41
2022-11-17T20:36:35.307Z,98461.66
2022-11-17T20:39:06.421Z,98467.09
2022-11-17T20:41:35.137Z,98470.53
2022-11-17T20:44:05.105Z,98476.69
2022-11-17T20:46:33.360Z,98473.97
2022-11-17T20:49:01.508Z,98471.66
2022-11-17T20:51:29.729Z,98470.97
2022-11-17T20:53:57.861Z,98469.34
2022-11-17T20:56:25.915Z,98474.03
2022-11-17T20:58:54.495Z,98474.75
2022-11-17T21:01:24.436Z,98473.19
2022-11-17T21:03:53.463Z,98466.59
2022-11-17T21:06:23.182Z,98460.75
2022-11-17T21:08:51.618Z,98471.56
2022-11-17T21:11:35.248Z,98466.94
2022-11-17T21:14:03.833Z,98466.91
2022-11-17T21:16:33.942Z,98471.50
2022-11-17T21:19:02.123Z,98470.69
2022-11-17T21:21:30.508Z,98468.72
2022-11-17T21:23:58.833Z,98470.72
2022-11-17T21:26:27.896Z,98464.47
2022-11-17T21:28:59.333Z,98471.44
2022-11-17T21:31:33.088Z,98470.22
2022-11-17T21:34:03.461Z,98472.47
2022-11-17T21:36:32.945Z,98470.13
2022-11-17T21:39:01.244Z,98467.41
2022-11-17T21:41:31.975Z,98474.03
2022-11-17T21:44:01.999Z,98473.22
2022-11-17T21:46:33.984Z,98468.94
2022-11-17T21:49:02.172Z,98475.50
2022-11-17T21:51:33.518Z,98470.75
2022-11-17T21:54:03.860Z,98470.78
2022-11-17T21:56:32.232Z,98480.53
2022-11-17T21:59:01.983Z,98481.59
2022-11-17T22:01:30.709Z,98485.41
2022-11-17T22:04:00.298Z,98478.50
2022-11-17T22:06:28.988Z,98485.00
2022-11-17T22:08:57.800Z,98493.47
2022-11-17T22:11:36.999Z,98500.19
2022-11-17T22:14:08.189Z,98507.41
2022-11-17T22:16:37.217Z,98500.41
2022-11-17T22:19:09.126Z,98504.22
2022-11-17T22:21:38.316Z,98500.00
2022-11-17T22:24:08.614Z,98491.03
2022-11-17T22:26:38.434Z,98488.34
2022-11-17T22:29:08.000Z,98496.41
2022-11-17T22:31:36.260Z,98491.13
2022-11-17T22:34:04.586Z,98488.75
2022-11-17T22:36:34.030Z,98485.19
2022-11-17T22:39:02.134Z,98487.50
2022-11-17T22:41:30.423Z,98483.25
2022-11-17T22:43:59.128Z,98483.91
2022-11-17T22:46:28.592Z,98494.72
2022-11-17T22:48:57.835Z,98486.22
2022-11-17T22:51:43.759Z,98496.22
2022-11-17T22:54:13.221Z,98492.38
2022-11-17T22:56:41.269Z,98490.81
2022-11-17T22:59:10.108Z,98489.22
2022-11-17T23:01:38.575Z,98478.41
2022-11-17T23:04:07.842Z,98479.81
2022-11-17T23:06:35.973Z,98478.94
2022-11-17T23:09:04.097Z,98490.44
2022-11-17T23:11:38.187Z,98495.75
2022-11-17T23:14:08.056Z,98484.13
2022-11-17T23:16:36.878Z,98480.22
2022-11-17T23:19:05.840Z,98487.19
2022-11-17T23:21:34.272Z,98481.91
2022-11-17T23:24:02.344Z,98483.03
2022-11-17T23:26:30.472Z,98484.91
2022-11-17T23:29:00.931Z,98480.22
2022-11-17T23:31:29.094Z,98485.63
2022-11-17T23:33:57.183Z,98479.84
2022-11-17T23:36:26.058Z,98489.47
2022-11-17T23:38:56.822Z,98487.13
2022-11-17T23:41:24.937Z,98484.03
2022-11-17T23:43:54.887Z,98484.75
2022-11-17T23:46:25.806Z,98485.09
2022-11-17T23:48:54.318Z,98495.75
2022-11-17T23:51:24.050Z,98499.25
2022-11-17T23:53:52.581Z,98495.41
2022-11-17T23:56:21.542Z,98492.91
2022-11-17T23:58:49.842Z,98490.91
